Iberia, Ohio
Current Conditions -  °F | °C
As of 9:53 AM on Wednesday 26 Nov 2014 (Local Time) from KMNN Reporting Station
Overcast Overcast  
Wind Chill: -3°   Ceiling: 2500
Heat Index: -1°   Visibility: 7mi
Dew Point: -5°   Wind: 5mph
Humidity: 72%   Direction: 10°N
Pressure: 30.12"   Gusts: NA
Location:  40.67°N, 82.84°W
Report Text: KMNN 261453Z AUTO 01004KT 7SM OVC025 M01/M05 A3012 RMK AO2 SLP211 T10061050 57001 TSNO
Loading
Personal Weather Stations






























Interactive Weather Map New forecast layout! Learn more

10-Day Weather Forecast

Advertisements
Track Severe Weather on mobile